sensor_id;sensor_type;location;lat;lon;timestamp;temperature;humidity
11639;DHT22;5875;35.940;126.892;2023-08-30T00:01:32;25.70;99.90
11639;DHT22;5875;35.940;126.892;2023-08-30T00:04:00;25.80;99.90
11639;DHT22;5875;35.940;126.892;2023-08-30T00:06:27;25.80;99.90
11639;DHT22;5875;35.940;126.892;2023-08-30T00:08:54;25.80;99.90
11639;DHT22;5875;35.940;126.892;2023-08-30T00:11:23;25.80;99.90
11639;DHT22;5875;35.940;126.892;2023-08-30T00:13:50;25.80;99.90
11639;DHT22;5875;35.940;126.892;2023-08-30T00:16:17;25.80;99.90
11639;DHT22;5875;35.940;126.892;2023-08-30T00:18:44;25.70;99.90
11639;DHT22;5875;35.940;126.892;2023-08-30T00:21:11;25.60;99.90
11639;DHT22;5875;35.940;126.892;2023-08-30T00:23:39;25.60;99.90
11639;DHT22;5875;35.940;126.892;2023-08-30T00:26:06;25.60;99.90
11639;DHT22;5875;35.940;126.892;2023-08-30T00:28:33;25.70;99.90
11639;DHT22;5875;35.940;126.892;2023-08-30T00:31:00;25.60;99.90
11639;DHT22;5875;35.940;126.892;2023-08-30T00:33:27;25.90;99.90
11639;DHT22;5875;35.940;126.892;2023-08-30T00:36:01;25.90;99.90
11639;DHT22;5875;35.940;126.892;2023-08-30T00:38:28;25.70;99.90
11639;DHT22;5875;35.940;126.892;2023-08-30T00:40:55;25.60;99.90
11639;DHT22;5875;35.940;126.892;2023-08-30T00:43:23;25.40;99.90
11639;DHT22;5875;35.940;126.892;2023-08-30T00:45:50;25.40;99.90
11639;DHT22;5875;35.940;126.892;2023-08-30T00:48:19;25.50;99.90
11639;DHT22;5875;35.940;126.892;2023-08-30T00:50:47;25.50;99.90
11639;DHT22;5875;35.940;126.892;2023-08-30T00:53:14;25.50;99.90
11639;DHT22;5875;35.940;126.892;2023-08-30T00:55:42;25.40;99.90
11639;DHT22;5875;35.940;126.892;2023-08-30T00:58:10;25.40;99.90
11639;DHT22;5875;35.940;126.892;2023-08-30T01:00:38;25.40;99.90
11639;DHT22;5875;35.940;126.892;2023-08-30T01:03:06;25.30;99.90
11639;DHT22;5875;35.940;126.892;2023-08-30T01:05:36;25.40;99.90
11639;DHT22;5875;35.940;126.892;2023-08-30T01:08:04;25.50;99.90
11639;DHT22;5875;35.940;126.892;2023-08-30T01:11:03;25.60;99.90
11639;DHT22;5875;35.940;126.892;2023-08-30T01:13:37;25.40;99.90
11639;DHT22;5875;35.940;126.892;2023-08-30T01:16:07;25.50;99.90
11639;DHT22;5875;35.940;126.892;2023-08-30T01:18:36;25.50;99.90
11639;DHT22;5875;35.940;126.892;2023-08-30T01:21:06;25.30;99.90
11639;DHT22;5875;35.940;126.892;2023-08-30T01:23:56;25.30;99.90
11639;DHT22;5875;35.940;126.892;2023-08-30T01:29:09;25.70;99.90
11639;DHT22;5875;35.940;126.892;2023-08-30T01:31:38;25.60;99.90
11639;DHT22;5875;35.940;126.892;2023-08-30T01:34:06;25.60;99.90
11639;DHT22;5875;35.940;126.892;2023-08-30T01:36:33;25.50;99.90
11639;DHT22;5875;35.940;126.892;2023-08-30T01:39:00;25.40;99.90
11639;DHT22;5875;35.940;126.892;2023-08-30T01:41:28;25.60;99.90
11639;DHT22;5875;35.940;126.892;2023-08-30T01:43:56;25.80;99.90
11639;DHT22;5875;35.940;126.892;2023-08-30T01:46:25;25.80;99.90
11639;DHT22;5875;35.940;126.892;2023-08-30T01:48:53;25.70;99.90
11639;DHT22;5875;35.940;126.892;2023-08-30T01:51:21;25.60;99.90
11639;DHT22;5875;35.940;126.892;2023-08-30T01:53:49;25.70;99.90
11639;DHT22;5875;35.940;126.892;2023-08-30T01:56:16;25.70;99.90
11639;DHT22;5875;35.940;126.892;2023-08-30T01:58:43;25.90;99.90
11639;DHT22;5875;35.940;126.892;2023-08-30T02:01:11;25.90;99.90
11639;DHT22;5875;35.940;126.892;2023-08-30T02:03:38;26.00;99.90
11639;DHT22;5875;35.940;126.892;2023-08-30T02:09:19;26.00;99.90
11639;DHT22;5875;35.940;126.892;2023-08-30T02:11:50;26.00;99.90
11639;DHT22;5875;35.940;126.892;2023-08-30T02:14:18;25.70;99.90
11639;DHT22;5875;35.940;126.892;2023-08-30T02:16:48;25.60;99.90
11639;DHT22;5875;35.940;126.892;2023-08-30T02:19:16;25.70;99.90
11639;DHT22;5875;35.940;126.892;2023-08-30T02:21:47;26.00;99.90
11639;DHT22;5875;35.940;126.892;2023-08-30T02:24:15;26.00;99.90
11639;DHT22;5875;35.940;126.892;2023-08-30T02:26:42;26.00;99.90
11639;DHT22;5875;35.940;126.892;2023-08-30T02:29:09;26.00;99.90
11639;DHT22;5875;35.940;126.892;2023-08-30T02:31:36;26.10;99.90
11639;DHT22;5875;35.940;126.892;2023-08-30T02:34:03;25.90;99.90
11639;DHT22;5875;35.940;126.892;2023-08-30T02:36:30;25.90;99.90
11639;DHT22;5875;35.940;126.892;2023-08-30T02:38:58;26.10;99.90
11639;DHT22;5875;35.940;126.892;2023-08-30T02:41:25;26.00;99.90
11639;DHT22;5875;35.940;126.892;2023-08-30T02:43:52;26.10;99.90
11639;DHT22;5875;35.940;126.892;2023-08-30T02:46:19;26.30;99.90
11639;DHT22;5875;35.940;126.892;2023-08-30T02:48:46;26.20;99.90
11639;DHT22;5875;35.940;126.892;2023-08-30T02:51:13;26.20;99.90
11639;DHT22;5875;35.940;126.892;2023-08-30T02:53:40;26.40;99.90
11639;DHT22;5875;35.940;126.892;2023-08-30T02:56:08;26.30;99.90
11639;DHT22;5875;35.940;126.892;2023-08-30T02:58:35;26.30;99.90
11639;DHT22;5875;35.940;126.892;2023-08-30T03:01:02;26.30;99.90
11639;DHT22;5875;35.940;126.892;2023-08-30T03:03:29;26.20;99.90
11639;DHT22;5875;35.940;126.892;2023-08-30T03:05:56;26.30;99.90
11639;DHT22;5875;35.940;126.892;2023-08-30T03:08:23;26.40;99.90
11639;DHT22;5875;35.940;126.892;2023-08-30T03:10:51;26.50;99.90
11639;DHT22;5875;35.940;126.892;2023-08-30T03:13:18;26.50;99.90
11639;DHT22;5875;35.940;126.892;2023-08-30T03:15:45;26.40;99.90
11639;DHT22;5875;35.940;126.892;2023-08-30T03:18:12;26.30;99.90
11639;DHT22;5875;35.940;126.892;2023-08-30T03:20:39;26.00;99.90
11639;DHT22;5875;35.940;126.892;2023-08-30T03:23:06;26.10;99.90
11639;DHT22;5875;35.940;126.892;2023-08-30T03:25:33;26.10;99.90
11639;DHT22;5875;35.940;126.892;2023-08-30T03:28:01;26.00;99.90
11639;DHT22;5875;35.940;126.892;2023-08-30T03:30:29;26.10;99.90
11639;DHT22;5875;35.940;126.892;2023-08-30T03:32:56;26.20;99.90
11639;DHT22;5875;35.940;126.892;2023-08-30T03:35:23;25.90;99.90
11639;DHT22;5875;35.940;126.892;2023-08-30T03:37:50;26.10;99.90
11639;DHT22;5875;35.940;126.892;2023-08-30T03:40:18;26.00;99.90
11639;DHT22;5875;35.940;126.892;2023-08-30T03:42:45;25.90;99.90
11639;DHT22;5875;35.940;126.892;2023-08-30T03:45:12;25.80;99.90
11639;DHT22;5875;35.940;126.892;2023-08-30T03:47:40;26.00;99.90
11639;DHT22;5875;35.940;126.892;2023-08-30T03:50:08;26.10;99.90
11639;DHT22;5875;35.940;126.892;2023-08-30T03:52:35;26.20;99.90
11639;DHT22;5875;35.940;126.892;2023-08-30T03:55:03;26.00;99.90
11639;DHT22;5875;35.940;126.892;2023-08-30T03:57:30;26.00;99.90
11639;DHT22;5875;35.940;126.892;2023-08-30T03:59:57;26.00;99.90
11639;DHT22;5875;35.940;126.892;2023-08-30T04:02:24;26.20;99.90
11639;DHT22;5875;35.940;126.892;2023-08-30T04:04:51;26.10;99.90
11639;DHT22;5875;35.940;126.892;2023-08-30T04:07:18;26.00;99.90
11639;DHT22;5875;35.940;126.892;2023-08-30T04:09:45;26.10;99.90
11639;DHT22;5875;35.940;126.892;2023-08-30T04:12:13;26.10;99.90
11639;DHT22;5875;35.940;126.892;2023-08-30T04:14:40;26.20;99.90
11639;DHT22;5875;35.940;126.892;2023-08-30T04:17:07;26.30;99.90
11639;DHT22;5875;35.940;126.892;2023-08-30T04:19:34;26.20;99.90
11639;DHT22;5875;35.940;126.892;2023-08-30T04:22:01;26.00;99.90
11639;DHT22;5875;35.940;126.892;2023-08-30T04:24:29;26.00;99.90
11639;DHT22;5875;35.940;126.892;2023-08-30T04:26:56;25.80;99.90
11639;DHT22;5875;35.940;126.892;2023-08-30T04:29:23;25.90;99.90
11639;DHT22;5875;35.940;126.892;2023-08-30T04:31:50;25.80;99.90
11639;DHT22;5875;35.940;126.892;2023-08-30T04:34:17;25.60;99.90
11639;DHT22;5875;35.940;126.892;2023-08-30T04:36:45;25.70;99.90
11639;DHT22;5875;35.940;126.892;2023-08-30T04:39:13;25.70;99.90
11639;DHT22;5875;35.940;126.892;2023-08-30T04:41:40;25.60;99.90
11639;DHT22;5875;35.940;126.892;2023-08-30T04:44:07;25.60;99.90
11639;DHT22;5875;35.940;126.892;2023-08-30T04:46:35;25.50;99.90
11639;DHT22;5875;35.940;126.892;2023-08-30T04:49:02;25.30;99.90
11639;DHT22;5875;35.940;126.892;2023-08-30T04:51:29;25.60;99.90
11639;DHT22;5875;35.940;126.892;2023-08-30T04:53:57;25.70;99.90
11639;DHT22;5875;35.940;126.892;2023-08-30T04:56:24;25.80;99.90
11639;DHT22;5875;35.940;126.892;2023-08-30T04:58:51;25.80;99.90
11639;DHT22;5875;35.940;126.892;2023-08-30T05:01:18;25.50;99.90
11639;DHT22;5875;35.940;126.892;2023-08-30T05:03:45;25.30;99.90
11639;DHT22;5875;35.940;126.892;2023-08-30T05:06:12;25.40;99.90
11639;DHT22;5875;35.940;126.892;2023-08-30T05:08:42;25.30;99.90
11639;DHT22;5875;35.940;126.892;2023-08-30T05:11:10;25.20;99.90
11639;DHT22;5875;35.940;126.892;2023-08-30T05:13:37;25.30;99.90
11639;DHT22;5875;35.940;126.892;2023-08-30T05:16:04;25.40;99.90
11639;DHT22;5875;35.940;126.892;2023-08-30T05:18:31;25.50;99.90
11639;DHT22;5875;35.940;126.892;2023-08-30T05:20:58;25.20;99.90
11639;DHT22;5875;35.940;126.892;2023-08-30T05:23:26;25.10;99.90
11639;DHT22;5875;35.940;126.892;2023-08-30T05:25:53;25.00;99.90
11639;DHT22;5875;35.940;126.892;2023-08-30T05:28:20;25.10;99.90
11639;DHT22;5875;35.940;126.892;2023-08-30T05:30:47;25.10;99.90
11639;DHT22;5875;35.940;126.892;2023-08-30T05:33:17;25.00;99.90
11639;DHT22;5875;35.940;126.892;2023-08-30T05:35:44;25.20;99.90
11639;DHT22;5875;35.940;126.892;2023-08-30T05:38:11;25.20;99.90
11639;DHT22;5875;35.940;126.892;2023-08-30T05:40:38;25.10;99.90
11639;DHT22;5875;35.940;126.892;2023-08-30T05:43:09;25.10;99.90
11639;DHT22;5875;35.940;126.892;2023-08-30T05:45:36;25.10;99.90
11639;DHT22;5875;35.940;126.892;2023-08-30T05:48:04;25.20;99.90
11639;DHT22;5875;35.940;126.892;2023-08-30T05:50:31;25.10;99.90
11639;DHT22;5875;35.940;126.892;2023-08-30T05:52:58;25.10;99.90
11639;DHT22;5875;35.940;126.892;2023-08-30T05:55:25;25.00;99.90
11639;DHT22;5875;35.940;126.892;2023-08-30T05:57:52;25.10;99.90
11639;DHT22;5875;35.940;126.892;2023-08-30T06:00:20;25.20;99.90
11639;DHT22;5875;35.940;126.892;2023-08-30T06:02:47;25.00;99.90
11639;DHT22;5875;35.940;126.892;2023-08-30T06:05:14;25.10;99.90
11639;DHT22;5875;35.940;126.892;2023-08-30T06:07:41;25.10;99.90
11639;DHT22;5875;35.940;126.892;2023-08-30T06:10:09;25.20;99.90
11639;DHT22;5875;35.940;126.892;2023-08-30T06:12:36;25.00;99.90
11639;DHT22;5875;35.940;126.892;2023-08-30T06:15:03;25.00;99.90
11639;DHT22;5875;35.940;126.892;2023-08-30T06:17:31;25.10;99.90
11639;DHT22;5875;35.940;126.892;2023-08-30T06:19:58;24.90;99.90
11639;DHT22;5875;35.940;126.892;2023-08-30T06:22:25;24.90;99.90
11639;DHT22;5875;35.940;126.892;2023-08-30T06:24:52;25.10;99.90
11639;DHT22;5875;35.940;126.892;2023-08-30T06:27:20;25.10;99.90
11639;DHT22;5875;35.940;126.892;2023-08-30T06:29:47;25.10;99.90
11639;DHT22;5875;35.940;126.892;2023-08-30T06:32:14;24.90;99.90
11639;DHT22;5875;35.940;126.892;2023-08-30T06:34:42;24.90;99.90
11639;DHT22;5875;35.940;126.892;2023-08-30T06:37:09;24.90;99.90
11639;DHT22;5875;35.940;126.892;2023-08-30T06:39:36;24.80;99.90
11639;DHT22;5875;35.940;126.892;2023-08-30T06:42:04;24.70;99.90
11639;DHT22;5875;35.940;126.892;2023-08-30T06:44:31;24.70;99.90
11639;DHT22;5875;35.940;126.892;2023-08-30T06:46:58;24.90;99.90
11639;DHT22;5875;35.940;126.892;2023-08-30T06:49:25;24.70;99.90
11639;DHT22;5875;35.940;126.892;2023-08-30T06:51:53;24.70;99.90
11639;DHT22;5875;35.940;126.892;2023-08-30T06:54:20;24.80;99.90
11639;DHT22;5875;35.940;126.892;2023-08-30T06:57:00;24.90;99.90
11639;DHT22;5875;35.940;126.892;2023-08-30T06:59:28;24.90;99.90
11639;DHT22;5875;35.940;126.892;2023-08-30T07:01:55;24.90;99.90
11639;DHT22;5875;35.940;126.892;2023-08-30T07:04:22;24.90;99.90
11639;DHT22;5875;35.940;126.892;2023-08-30T07:06:50;25.00;99.90
11639;DHT22;5875;35.940;126.892;2023-08-30T07:09:18;24.90;99.90
11639;DHT22;5875;35.940;126.892;2023-08-30T07:11:45;24.90;99.90
11639;DHT22;5875;35.940;126.892;2023-08-30T07:14:13;25.00;99.90
11639;DHT22;5875;35.940;126.892;2023-08-30T07:16:41;25.10;99.90
11639;DHT22;5875;35.940;126.892;2023-08-30T07:19:08;25.00;99.90
11639;DHT22;5875;35.940;126.892;2023-08-30T07:21:36;25.20;99.90
11639;DHT22;5875;35.940;126.892;2023-08-30T07:24:06;25.30;99.90
11639;DHT22;5875;35.940;126.892;2023-08-30T07:26:34;25.10;99.90
11639;DHT22;5875;35.940;126.892;2023-08-30T07:29:01;25.10;99.90
11639;DHT22;5875;35.940;126.892;2023-08-30T07:31:32;25.00;99.90
11639;DHT22;5875;35.940;126.892;2023-08-30T07:33:59;24.90;99.90
11639;DHT22;5875;35.940;126.892;2023-08-30T07:36:30;25.00;99.90
11639;DHT22;5875;35.940;126.892;2023-08-30T07:38:59;25.10;99.90
11639;DHT22;5875;35.940;126.892;2023-08-30T07:41:27;25.10;99.90
11639;DHT22;5875;35.940;126.892;2023-08-30T07:43:54;25.00;99.90
11639;DHT22;5875;35.940;126.892;2023-08-30T07:46:21;25.00;99.90
11639;DHT22;5875;35.940;126.892;2023-08-30T07:48:49;25.10;99.90
11639;DHT22;5875;35.940;126.892;2023-08-30T07:51:16;25.20;99.90
11639;DHT22;5875;35.940;126.892;2023-08-30T07:53:43;25.00;99.90
11639;DHT22;5875;35.940;126.892;2023-08-30T07:56:10;25.00;99.90
11639;DHT22;5875;35.940;126.892;2023-08-30T07:58:37;25.00;99.90
11639;DHT22;5875;35.940;126.892;2023-08-30T08:01:04;24.90;99.90
11639;DHT22;5875;35.940;126.892;2023-08-30T08:03:31;25.10;99.90
11639;DHT22;5875;35.940;126.892;2023-08-30T08:05:59;24.90;99.90
11639;DHT22;5875;35.940;126.892;2023-08-30T08:08:27;24.90;99.90
11639;DHT22;5875;35.940;126.892;2023-08-30T08:10:54;25.00;99.90
11639;DHT22;5875;35.940;126.892;2023-08-30T08:13:21;25.00;99.90
11639;DHT22;5875;35.940;126.892;2023-08-30T08:15:48;25.30;99.90
11639;DHT22;5875;35.940;126.892;2023-08-30T08:18:15;25.20;99.90
11639;DHT22;5875;35.940;126.892;2023-08-30T08:20:43;25.20;99.90
11639;DHT22;5875;35.940;126.892;2023-08-30T08:23:10;25.20;99.90
11639;DHT22;5875;35.940;126.892;2023-08-30T08:25:37;24.90;99.90
11639;DHT22;5875;35.940;126.892;2023-08-30T08:28:05;24.70;99.90
11639;DHT22;5875;35.940;126.892;2023-08-30T08:30:32;24.70;99.90
11639;DHT22;5875;35.940;126.892;2023-08-30T08:32:59;24.80;99.90
11639;DHT22;5875;35.940;126.892;2023-08-30T08:35:26;24.60;99.90
11639;DHT22;5875;35.940;126.892;2023-08-30T08:37:53;24.70;99.90
11639;DHT22;5875;35.940;126.892;2023-08-30T08:40:20;24.40;99.90
11639;DHT22;5875;35.940;126.892;2023-08-30T08:42:49;24.20;99.90
11639;DHT22;5875;35.940;126.892;2023-08-30T08:45:22;23.90;99.90
11639;DHT22;5875;35.940;126.892;2023-08-30T08:47:51;23.70;99.90
11639;DHT22;5875;35.940;126.892;2023-08-30T08:50:18;23.80;99.90
11639;DHT22;5875;35.940;126.892;2023-08-30T08:52:46;23.80;99.90
11639;DHT22;5875;35.940;126.892;2023-08-30T08:55:14;24.00;99.90
11639;DHT22;5875;35.940;126.892;2023-08-30T08:57:42;23.80;99.90
11639;DHT22;5875;35.940;126.892;2023-08-30T09:00:10;23.70;99.90
11639;DHT22;5875;35.940;126.892;2023-08-30T09:02:37;23.80;99.90
11639;DHT22;5875;35.940;126.892;2023-08-30T09:05:06;23.60;99.90
11639;DHT22;5875;35.940;126.892;2023-08-30T09:07:33;23.60;99.90
11639;DHT22;5875;35.940;126.892;2023-08-30T09:10:01;23.70;99.90
11639;DHT22;5875;35.940;126.892;2023-08-30T09:12:33;23.80;99.90
11639;DHT22;5875;35.940;126.892;2023-08-30T09:15:01;23.90;99.90
11639;DHT22;5875;35.940;126.892;2023-08-30T09:17:38;23.60;99.90
11639;DHT22;5875;35.940;126.892;2023-08-30T09:20:12;23.30;99.90
11639;DHT22;5875;35.940;126.892;2023-08-30T09:22:41;23.20;99.90
11639;DHT22;5875;35.940;126.892;2023-08-30T09:25:10;23.00;99.90
11639;DHT22;5875;35.940;126.892;2023-08-30T09:27:37;22.90;99.90
11639;DHT22;5875;35.940;126.892;2023-08-30T09:30:08;22.90;99.90
11639;DHT22;5875;35.940;126.892;2023-08-30T09:32:40;23.00;99.90
11639;DHT22;5875;35.940;126.892;2023-08-30T09:35:08;23.00;99.90
11639;DHT22;5875;35.940;126.892;2023-08-30T09:37:36;22.90;99.90
11639;DHT22;5875;35.940;126.892;2023-08-30T09:40:04;22.80;99.90
11639;DHT22;5875;35.940;126.892;2023-08-30T09:42:32;22.70;99.90
11639;DHT22;5875;35.940;126.892;2023-08-30T09:44:59;22.80;99.90
11639;DHT22;5875;35.940;126.892;2023-08-30T09:47:27;22.90;99.90
11639;DHT22;5875;35.940;126.892;2023-08-30T09:49:55;22.90;99.90
11639;DHT22;5875;35.940;126.892;2023-08-30T09:52:24;23.00;99.90
11639;DHT22;5875;35.940;126.892;2023-08-30T09:54:52;23.20;99.90
11639;DHT22;5875;35.940;126.892;2023-08-30T09:57:21;23.50;99.90
11639;DHT22;5875;35.940;126.892;2023-08-30T09:59:49;23.70;99.90
11639;DHT22;5875;35.940;126.892;2023-08-30T10:02:17;23.50;99.90
11639;DHT22;5875;35.940;126.892;2023-08-30T10:04:45;23.70;99.90
11639;DHT22;5875;35.940;126.892;2023-08-30T10:07:13;23.80;99.90
11639;DHT22;5875;35.940;126.892;2023-08-30T10:09:41;23.90;99.90
11639;DHT22;5875;35.940;126.892;2023-08-30T10:12:08;23.90;99.90
11639;DHT22;5875;35.940;126.892;2023-08-30T10:14:37;24.00;99.90
11639;DHT22;5875;35.940;126.892;2023-08-30T10:17:05;23.90;99.90
11639;DHT22;5875;35.940;126.892;2023-08-30T10:19:37;23.90;99.90
11639;DHT22;5875;35.940;126.892;2023-08-30T10:22:06;23.90;99.90
11639;DHT22;5875;35.940;126.892;2023-08-30T10:25:05;24.00;99.90
11639;DHT22;5875;35.940;126.892;2023-08-30T10:27:34;23.70;99.90
11639;DHT22;5875;35.940;126.892;2023-08-30T10:30:05;23.60;99.90
11639;DHT22;5875;35.940;126.892;2023-08-30T10:32:39;23.40;99.90
11639;DHT22;5875;35.940;126.892;2023-08-30T10:35:06;23.30;99.90
11639;DHT22;5875;35.940;126.892;2023-08-30T10:37:37;23.10;99.90
11639;DHT22;5875;35.940;126.892;2023-08-30T10:40:05;23.00;99.90
11639;DHT22;5875;35.940;126.892;2023-08-30T10:42:33;23.10;99.90
11639;DHT22;5875;35.940;126.892;2023-08-30T10:45:05;23.00;99.90
11639;DHT22;5875;35.940;126.892;2023-08-30T10:47:35;23.00;99.90
11639;DHT22;5875;35.940;126.892;2023-08-30T10:50:09;23.10;99.90
11639;DHT22;5875;35.940;126.892;2023-08-30T10:52:37;23.30;99.90
11639;DHT22;5875;35.940;126.892;2023-08-30T10:55:11;23.20;99.90
11639;DHT22;5875;35.940;126.892;2023-08-30T10:57:43;23.20;99.90
11639;DHT22;5875;35.940;126.892;2023-08-30T11:00:20;23.20;99.90
11639;DHT22;5875;35.940;126.892;2023-08-30T11:02:52;23.00;99.90
11639;DHT22;5875;35.940;126.892;2023-08-30T11:05:30;23.00;99.90
11639;DHT22;5875;35.940;126.892;2023-08-30T11:07:57;23.10;99.90
11639;DHT22;5875;35.940;126.892;2023-08-30T11:10:24;23.30;99.90
11639;DHT22;5875;35.940;126.892;2023-08-30T11:12:52;23.60;99.90
11639;DHT22;5875;35.940;126.892;2023-08-30T11:15:19;23.80;99.90
11639;DHT22;5875;35.940;126.892;2023-08-30T11:17:48;23.70;99.90
11639;DHT22;5875;35.940;126.892;2023-08-30T11:20:16;23.80;99.90
11639;DHT22;5875;35.940;126.892;2023-08-30T11:22:47;23.90;99.90
11639;DHT22;5875;35.940;126.892;2023-08-30T11:25:15;23.90;99.90
11639;DHT22;5875;35.940;126.892;2023-08-30T11:27:43;23.80;99.90
11639;DHT22;5875;35.940;126.892;2023-08-30T11:30:11;23.80;99.90
11639;DHT22;5875;35.940;126.892;2023-08-30T11:32:42;23.80;99.90
11639;DHT22;5875;35.940;126.892;2023-08-30T11:35:09;23.90;99.90
11639;DHT22;5875;35.940;126.892;2023-08-30T11:37:37;24.00;99.90
11639;DHT22;5875;35.940;126.892;2023-08-30T11:40:05;23.90;99.90
11639;DHT22;5875;35.940;126.892;2023-08-30T11:42:32;24.00;99.90
11639;DHT22;5875;35.940;126.892;2023-08-30T11:45:00;23.80;99.90
11639;DHT22;5875;35.940;126.892;2023-08-30T11:47:27;23.60;99.90
11639;DHT22;5875;35.940;126.892;2023-08-30T11:49:58;23.60;99.90
11639;DHT22;5875;35.940;126.892;2023-08-30T11:52:26;23.70;99.90
11639;DHT22;5875;35.940;126.892;2023-08-30T11:54:53;23.80;99.90
11639;DHT22;5875;35.940;126.892;2023-08-30T11:57:21;23.90;99.90
11639;DHT22;5875;35.940;126.892;2023-08-30T11:59:49;24.00;99.90
11639;DHT22;5875;35.940;126.892;2023-08-30T12:02:17;24.10;99.90
11639;DHT22;5875;35.940;126.892;2023-08-30T12:04:46;24.10;99.90
11639;DHT22;5875;35.940;126.892;2023-08-30T12:07:26;24.00;99.90
11639;DHT22;5875;35.940;126.892;2023-08-30T12:10:07;24.00;99.90
11639;DHT22;5875;35.940;126.892;2023-08-30T12:12:35;24.10;99.90
11639;DHT22;5875;35.940;126.892;2023-08-30T12:15:09;24.10;99.90
11639;DHT22;5875;35.940;126.892;2023-08-30T12:17:36;24.00;99.90
11639;DHT22;5875;35.940;126.892;2023-08-30T12:20:04;24.00;99.90
11639;DHT22;5875;35.940;126.892;2023-08-30T12:22:38;24.00;99.90
11639;DHT22;5875;35.940;126.892;2023-08-30T12:25:20;23.90;99.90
11639;DHT22;5875;35.940;126.892;2023-08-30T12:27:47;24.00;99.90
11639;DHT22;5875;35.940;126.892;2023-08-30T12:30:18;23.80;99.90
11639;DHT22;5875;35.940;126.892;2023-08-30T12:32:46;23.80;99.90
11639;DHT22;5875;35.940;126.892;2023-08-30T12:35:14;23.90;99.90
11639;DHT22;5875;35.940;126.892;2023-08-30T12:37:41;24.00;99.90
11639;DHT22;5875;35.940;126.892;2023-08-30T12:40:08;24.00;99.90
11639;DHT22;5875;35.940;126.892;2023-08-30T12:42:36;24.00;99.90
11639;DHT22;5875;35.940;126.892;2023-08-30T12:45:03;24.00;99.90
11639;DHT22;5875;35.940;126.892;2023-08-30T12:47:30;23.90;99.90
11639;DHT22;5875;35.940;126.892;2023-08-30T12:49:57;23.90;99.90
11639;DHT22;5875;35.940;126.892;2023-08-30T12:52:24;23.90;99.90
11639;DHT22;5875;35.940;126.892;2023-08-30T12:54:52;24.00;99.90
11639;DHT22;5875;35.940;126.892;2023-08-30T12:57:20;24.00;99.90
11639;DHT22;5875;35.940;126.892;2023-08-30T12:59:47;24.00;99.90
11639;DHT22;5875;35.940;126.892;2023-08-30T13:02:14;24.00;99.90
11639;DHT22;5875;35.940;126.892;2023-08-30T13:04:42;24.00;99.90
11639;DHT22;5875;35.940;126.892;2023-08-30T13:07:09;23.90;99.90
11639;DHT22;5875;35.940;126.892;2023-08-30T13:09:36;23.90;99.90
11639;DHT22;5875;35.940;126.892;2023-08-30T13:12:03;23.80;99.90
11639;DHT22;5875;35.940;126.892;2023-08-30T13:14:31;23.90;99.90
11639;DHT22;5875;35.940;126.892;2023-08-30T13:16:58;23.90;99.90
11639;DHT22;5875;35.940;126.892;2023-08-30T13:19:25;23.90;99.90
11639;DHT22;5875;35.940;126.892;2023-08-30T13:21:52;23.80;99.90
11639;DHT22;5875;35.940;126.892;2023-08-30T13:24:19;23.60;99.90
11639;DHT22;5875;35.940;126.892;2023-08-30T13:26:46;23.40;99.90
11639;DHT22;5875;35.940;126.892;2023-08-30T13:31:58;23.40;99.90
11639;DHT22;5875;35.940;126.892;2023-08-30T13:34:26;23.40;99.90
11639;DHT22;5875;35.940;126.892;2023-08-30T13:36:53;23.30;99.90
11639;DHT22;5875;35.940;126.892;2023-08-30T13:39:20;23.30;99.90
11639;DHT22;5875;35.940;126.892;2023-08-30T13:41:48;23.40;99.90
11639;DHT22;5875;35.940;126.892;2023-08-30T13:44:16;23.50;99.90
11639;DHT22;5875;35.940;126.892;2023-08-30T13:46:44;23.50;99.90
11639;DHT22;5875;35.940;126.892;2023-08-30T13:49:14;23.30;99.90
11639;DHT22;5875;35.940;126.892;2023-08-30T13:51:42;23.30;99.90
11639;DHT22;5875;35.940;126.892;2023-08-30T13:54:09;23.20;99.90
11639;DHT22;5875;35.940;126.892;2023-08-30T13:56:36;23.40;99.90
11639;DHT22;5875;35.940;126.892;2023-08-30T13:59:08;23.40;99.90
11639;DHT22;5875;35.940;126.892;2023-08-30T14:01:35;23.50;99.90
11639;DHT22;5875;35.940;126.892;2023-08-30T14:04:02;23.40;99.90
11639;DHT22;5875;35.940;126.892;2023-08-30T14:06:31;23.40;99.90
11639;DHT22;5875;35.940;126.892;2023-08-30T14:08:59;23.40;99.90
11639;DHT22;5875;35.940;126.892;2023-08-30T14:11:26;23.30;99.90
11639;DHT22;5875;35.940;126.892;2023-08-30T14:13:53;23.20;99.90
11639;DHT22;5875;35.940;126.892;2023-08-30T14:16:20;23.20;99.90
11639;DHT22;5875;35.940;126.892;2023-08-30T14:18:47;23.20;99.90
11639;DHT22;5875;35.940;126.892;2023-08-30T14:21:14;23.30;99.90
11639;DHT22;5875;35.940;126.892;2023-08-30T14:23:41;23.40;99.90
11639;DHT22;5875;35.940;126.892;2023-08-30T14:26:09;23.50;99.90
11639;DHT22;5875;35.940;126.892;2023-08-30T14:28:37;23.50;99.90
11639;DHT22;5875;35.940;126.892;2023-08-30T14:31:08;23.40;99.90
11639;DHT22;5875;35.940;126.892;2023-08-30T14:33:36;23.40;99.90
11639;DHT22;5875;35.940;126.892;2023-08-30T14:36:08;23.40;99.90
11639;DHT22;5875;35.940;126.892;2023-08-30T14:38:35;23.20;99.90
11639;DHT22;5875;35.940;126.892;2023-08-30T14:41:03;23.20;99.90
11639;DHT22;5875;35.940;126.892;2023-08-30T14:43:31;23.30;99.90
11639;DHT22;5875;35.940;126.892;2023-08-30T14:46:05;23.30;99.90
11639;DHT22;5875;35.940;126.892;2023-08-30T14:48:33;23.00;99.90
11639;DHT22;5875;35.940;126.892;2023-08-30T14:51:01;23.00;99.90
11639;DHT22;5875;35.940;126.892;2023-08-30T14:53:28;23.00;99.90
11639;DHT22;5875;35.940;126.892;2023-08-30T14:55:55;23.10;99.90
11639;DHT22;5875;35.940;126.892;2023-08-30T14:58:22;23.20;99.90
11639;DHT22;5875;35.940;126.892;2023-08-30T15:00:50;23.30;99.90
11639;DHT22;5875;35.940;126.892;2023-08-30T15:03:17;23.30;99.90
11639;DHT22;5875;35.940;126.892;2023-08-30T15:05:52;23.30;99.90
11639;DHT22;5875;35.940;126.892;2023-08-30T15:08:20;23.30;99.90
11639;DHT22;5875;35.940;126.892;2023-08-30T15:10:48;23.30;99.90
11639;DHT22;5875;35.940;126.892;2023-08-30T15:13:15;23.10;99.90
11639;DHT22;5875;35.940;126.892;2023-08-30T15:15:42;22.90;99.90
11639;DHT22;5875;35.940;126.892;2023-08-30T15:18:09;22.70;99.90
11639;DHT22;5875;35.940;126.892;2023-08-30T15:20:37;22.90;99.90
11639;DHT22;5875;35.940;126.892;2023-08-30T15:23:04;22.70;99.90
11639;DHT22;5875;35.940;126.892;2023-08-30T15:25:31;22.60;99.90
11639;DHT22;5875;35.940;126.892;2023-08-30T15:27:59;22.60;99.90
11639;DHT22;5875;35.940;126.892;2023-08-30T15:30:26;22.90;99.90